Time;durP1;ratioP1;P1;durP2;ratioP2;P2;SDS_P1;SDS_P2;PMS_P1;PMS_P2;Temp;Humidity;BMP_temperature;BMP_pressure;BME280_temperature;BME280_humidity;BME280_pressure;Samples;Min_cycle;Max_cycle;Signal;HPM_P1;HPM_P2
2023/03/31 00:01:53;;;;;;;0.90;0.90;;;18.40;63.30;;;;;;5100956;27;43845;-70
2023/03/31 00:04:22;;;;;;;1.03;1.03;;;18.40;63.20;;;;;;5099220;27;43460;-71
2023/03/31 00:06:52;;;;;;;1.03;1.00;;;18.40;63.20;;;;;;5103225;27;43411;-70
2023/03/31 00:09:21;;;;;;;1.10;1.10;;;18.30;63.30;;;;;;5095970;27;43404;-71
2023/03/31 00:11:49;;;;;;;0.93;0.93;;;18.30;63.50;;;;;;5086596;27;44652;-71
2023/03/31 00:14:18;;;;;;;1.10;1.10;;;18.30;63.30;;;;;;5089034;27;44984;-71
2023/03/31 00:16:46;;;;;;;0.90;0.90;;;18.30;63.30;;;;;;5098429;27;43404;-71
2023/03/31 00:19:18;;;;;;;1.00;1.00;;;18.30;63.40;;;;;;5089362;27;43420;-72
2023/03/31 00:21:47;;;;;;;0.90;0.90;;;18.20;63.50;;;;;;5102660;27;44018;-71
2023/03/31 00:24:16;;;;;;;1.03;1.03;;;18.20;63.60;;;;;;5104069;27;43470;-71
2023/03/31 00:26:44;;;;;;;1.13;1.03;;;18.20;63.90;;;;;;5082760;27;43566;-72
2023/03/31 00:29:13;;;;;;;0.90;0.90;;;18.30;63.70;;;;;;5104632;27;43451;-71
2023/03/31 00:31:41;;;;;;;1.10;1.10;;;18.30;63.30;;;;;;5103547;27;43818;-71
2023/03/31 00:34:09;;;;;;;1.10;1.10;;;18.40;63.30;;;;;;5104072;27;43768;-70
2023/03/31 00:36:46;;;;;;;1.30;1.20;;;18.30;63.20;;;;;;5096129;27;43449;-71
2023/03/31 00:39:16;;;;;;;1.00;1.00;;;18.30;63.40;;;;;;5097083;27;43657;-70
2023/03/31 00:41:44;;;;;;;1.00;1.00;;;18.30;63.50;;;;;;5092626;27;43896;-71
2023/03/31 00:44:13;;;;;;;1.00;1.00;;;18.30;63.70;;;;;;5101999;27;43398;-72
2023/03/31 00:46:44;;;;;;;1.10;1.10;;;18.30;63.30;;;;;;5102790;27;43827;-70
2023/03/31 00:49:15;;;;;;;1.10;1.10;;;18.30;63.40;;;;;;5086700;27;44020;-71
2023/03/31 00:51:43;;;;;;;1.13;1.13;;;18.20;63.50;;;;;;5074919;27;46230;-70
2023/03/31 00:54:11;;;;;;;1.00;1.00;;;18.20;63.80;;;;;;5075094;27;44723;-70
2023/03/31 00:56:44;;;;;;;1.00;1.00;;;18.20;63.70;;;;;;5081115;27;44029;-71
2023/03/31 00:59:13;;;;;;;1.20;1.20;;;18.20;63.50;;;;;;5104888;27;43421;-71
2023/03/31 01:01:42;;;;;;;1.00;1.00;;;18.20;63.50;;;;;;5071623;27;46069;-71
2023/03/31 01:04:10;;;;;;;0.80;0.80;;;18.20;63.60;;;;;;5101523;27;44064;-70
2023/03/31 01:06:45;;;;;;;1.07;1.07;;;18.10;63.70;;;;;;5095197;27;43429;-71
2023/03/31 01:09:15;;;;;;;0.80;0.80;;;18.10;63.90;;;;;;5088206;27;43397;-71
2023/03/31 01:11:45;;;;;;;1.00;1.00;;;18.20;63.80;;;;;;5106227;27;43911;-70
2023/03/31 01:14:13;;;;;;;1.00;1.00;;;18.30;63.40;;;;;;5105629;27;43617;-71
2023/03/31 01:16:41;;;;;;;1.13;1.13;;;18.40;63.20;;;;;;5103573;27;43375;-70
2023/03/31 01:19:16;;;;;;;1.20;1.20;;;18.50;63.00;;;;;;5099390;27;43442;-71
2023/03/31 01:22:09;;;;;;;0.97;0.97;;;18.40;62.80;;;;;;5102298;27;43648;-71
2023/03/31 01:24:53;;;;;;;1.70;1.20;;;18.40;63.20;;;;;;5097525;27;43581;-71
2023/03/31 01:27:33;;;;;;;0.90;0.90;;;18.40;63.00;;;;;;5103245;27;43423;-71
2023/03/31 01:30:19;;;;;;;1.10;1.10;;;18.40;63.00;;;;;;5106634;27;43442;-71
2023/03/31 01:33:11;;;;;;;1.10;1.10;;;18.40;63.20;;;;;;5075906;27;46037;-71
2023/03/31 01:36:09;;;;;;;0.97;0.97;;;18.30;63.30;;;;;;5072829;27;43487;-72
2023/03/31 01:39:14;;;;;;;1.00;1.00;;;18.20;63.60;;;;;;5077470;27;43478;-71
2023/03/31 01:41:47;;;;;;;1.07;1.07;;;18.20;63.50;;;;;;5047271;27;43533;-71
2023/03/31 01:44:19;;;;;;;0.90;0.90;;;18.30;63.50;;;;;;5094447;27;43850;-71
2023/03/31 01:46:51;;;;;;;0.83;0.83;;;18.20;63.50;;;;;;5105980;27;43355;-70
2023/03/31 01:49:21;;;;;;;0.93;0.93;;;18.20;63.60;;;;;;5083979;27;43448;-70
2023/03/31 01:51:52;;;;;;;1.07;1.07;;;18.20;63.80;;;;;;5107072;27;43446;-72
2023/03/31 01:54:22;;;;;;;1.30;1.30;;;18.20;63.90;;;;;;5096480;27;43690;-71
2023/03/31 01:56:52;;;;;;;1.07;1.00;;;18.20;63.70;;;;;;5081228;27;44580;-71
2023/03/31 01:59:22;;;;;;;0.70;0.70;;;18.20;63.60;;;;;;5103984;27;44091;-71
2023/03/31 02:01:52;;;;;;;1.10;1.10;;;18.20;63.70;;;;;;5094012;27;43457;-72
2023/03/31 02:04:21;;;;;;;1.13;1.10;;;18.10;63.70;;;;;;5099668;27;43993;-72
2023/03/31 02:06:55;;;;;;;1.00;1.00;;;18.10;64.70;;;;;;5109369;27;43528;-72
2023/03/31 02:09:25;;;;;;;0.80;0.80;;;18.20;64.00;;;;;;5105737;27;43464;-73
2023/03/31 02:11:55;;;;;;;1.10;1.10;;;18.30;63.60;;;;;;5088462;27;43469;-72
2023/03/31 02:14:24;;;;;;;1.00;1.00;;;18.40;63.30;;;;;;5107010;27;43869;-71
2023/03/31 02:16:57;;;;;;;1.20;1.20;;;18.40;63.10;;;;;;5100891;27;43425;-72
2023/03/31 02:19:26;;;;;;;0.80;0.80;;;18.40;63.10;;;;;;5105853;27;43458;-70
2023/03/31 02:21:54;;;;;;;0.90;0.90;;;18.40;63.30;;;;;;5110171;27;43450;-72
2023/03/31 02:24:24;;;;;;;1.07;1.07;;;18.40;63.50;;;;;;5108550;27;44080;-72
2023/03/31 02:26:55;;;;;;;0.70;0.70;;;18.30;63.10;;;;;;5089081;27;44982;-71
2023/03/31 02:29:23;;;;;;;1.07;1.07;;;18.30;63.20;;;;;;5077611;27;44042;-72
2023/03/31 02:31:54;;;;;;;0.87;0.87;;;18.30;63.40;;;;;;5078346;27;44004;-71
2023/03/31 02:34:22;;;;;;;1.00;1.00;;;18.20;63.50;;;;;;5086534;27;45300;-70
2023/03/31 02:36:50;;;;;;;0.90;0.90;;;18.20;63.70;;;;;;5109127;27;43518;-70
2023/03/31 02:39:19;;;;;;;0.90;0.90;;;18.20;63.50;;;;;;5108868;27;43406;-70
2023/03/31 02:41:48;;;;;;;0.80;0.80;;;18.20;63.50;;;;;;5109426;27;43524;-71
2023/03/31 02:44:17;;;;;;;0.80;0.80;;;18.20;63.60;;;;;;5108676;27;43748;-71
2023/03/31 02:46:45;;;;;;;0.93;0.93;;;18.20;63.70;;;;;;5089885;27;45089;-71
2023/03/31 02:49:13;;;;;;;1.10;1.10;;;18.10;63.80;;;;;;5086843;27;43424;-70
2023/03/31 02:52:11;;;;;;;1.00;1.00;;;18.20;64.00;;;;;;5090958;27;43677;-71
2023/03/31 02:55:04;;;;;;;0.80;0.80;;;18.30;63.70;;;;;;5054498;27;43927;-71
2023/03/31 02:57:50;;;;;;;0.90;0.90;;;18.30;63.30;;;;;;5100054;27;43483;-72
2023/03/31 03:00:23;;;;;;;0.93;0.93;;;18.30;63.20;;;;;;5085020;27;43418;-72
2023/03/31 03:02:59;;;;;;;0.80;0.80;;;18.30;63.30;;;;;;5081868;27;43606;-71
2023/03/31 03:05:33;;;;;;;1.00;1.00;;;18.30;63.60;;;;;;5087541;27;43768;-70
2023/03/31 03:08:27;;;;;;;1.10;1.10;;;18.30;63.50;;;;;;5099410;27;44010;-71
2023/03/31 03:11:01;;;;;;;0.90;0.90;;;18.30;63.40;;;;;;5089798;27;43416;-71
2023/03/31 03:13:32;;;;;;;1.00;1.00;;;18.30;63.50;;;;;;5085218;27;43396;-72
2023/03/31 03:16:04;;;;;;;0.90;0.90;;;18.20;63.50;;;;;;5088121;27;45874;-71
2023/03/31 03:18:32;;;;;;;0.90;0.90;;;18.20;63.70;;;;;;5108058;27;43438;-73
2023/03/31 03:21:00;;;;;;;1.00;1.00;;;18.20;63.90;;;;;;5096950;27;43482;-71
2023/03/31 03:23:28;;;;;;;0.97;0.97;;;18.20;63.60;;;;;;5078259;27;43930;-71
2023/03/31 03:25:56;;;;;;;0.83;0.83;;;18.30;63.40;;;;;;5107642;27;44179;-70
2023/03/31 03:28:24;;;;;;;0.70;0.70;;;18.30;63.30;;;;;;5106131;27;43421;-70
2023/03/31 03:30:52;;;;;;;0.80;0.80;;;18.30;63.30;;;;;;5090167;27;43900;-71
2023/03/31 03:33:23;;;;;;;0.90;0.90;;;18.30;63.40;;;;;;5090155;27;43994;-71
2023/03/31 03:35:51;;;;;;;1.20;1.10;;;18.30;63.70;;;;;;5089439;27;46016;-71
2023/03/31 03:38:19;;;;;;;0.87;0.87;;;18.30;63.50;;;;;;5107555;27;43469;-72
2023/03/31 03:40:53;;;;;;;1.00;1.00;;;18.30;63.40;;;;;;5106531;27;43386;-71
2023/03/31 03:43:21;;;;;;;0.87;0.87;;;18.30;63.50;;;;;;5095347;27;44015;-71
2023/03/31 03:45:48;;;;;;;0.80;0.80;;;18.20;63.50;;;;;;5076536;27;44968;-72
2023/03/31 03:48:16;;;;;;;0.80;0.80;;;18.20;63.80;;;;;;5107664;27;43943;-72
2023/03/31 03:50:46;;;;;;;1.00;1.00;;;18.20;64.70;;;;;;5092405;27;43407;-72
2023/03/31 03:53:14;;;;;;;0.90;0.90;;;18.30;63.70;;;;;;5098089;27;43790;-72
2023/03/31 03:55:47;;;;;;;1.20;0.83;;;18.30;63.40;;;;;;5087092;27;46133;-71
2023/03/31 03:58:17;;;;;;;0.93;0.93;;;18.30;63.20;;;;;;5088308;27;44753;-71
2023/03/31 04:00:46;;;;;;;0.80;0.80;;;18.30;63.30;;;;;;5107913;27;43462;-73
2023/03/31 04:03:15;;;;;;;0.70;0.70;;;18.30;63.40;;;;;;5092507;27;43911;-70
2023/03/31 04:05:43;;;;;;;0.80;0.80;;;18.30;63.60;;;;;;5082806;27;45863;-70
2023/03/31 04:08:12;;;;;;;0.80;0.80;;;18.30;63.40;;;;;;5101467;27;43522;-71
2023/03/31 04:10:44;;;;;;;0.77;0.77;;;18.30;63.40;;;;;;5096350;27;43753;-71
2023/03/31 04:13:12;;;;;;;0.70;0.70;;;18.20;63.50;;;;;;5101434;27;43462;-70
2023/03/31 04:15:40;;;;;;;0.70;0.70;;;18.20;63.60;;;;;;5101243;27;43608;-71
2023/03/31 04:18:09;;;;;;;1.07;1.03;;;18.20;63.80;;;;;;5102345;27;43481;-71
2023/03/31 04:20:38;;;;;;;1.00;1.00;;;18.20;63.80;;;;;;5092222;27;43529;-72
2023/03/31 04:23:08;;;;;;;0.87;0.87;;;18.30;63.60;;;;;;5098981;27;43370;-72
2023/03/31 04:25:45;;;;;;;0.93;0.93;;;18.40;63.30;;;;;;5106196;27;43606;-72
2023/03/31 04:28:13;;;;;;;0.90;0.90;;;18.40;63.20;;;;;;5097174;27;43478;-71
2023/03/31 04:30:41;;;;;;;0.80;0.80;;;18.40;63.20;;;;;;5099621;27;43437;-71
2023/03/31 04:33:09;;;;;;;0.97;0.97;;;18.30;63.30;;;;;;5087635;27;43499;-71
2023/03/31 04:35:47;;;;;;;0.77;0.77;;;18.30;63.50;;;;;;5098829;27;43828;-70
2023/03/31 04:38:17;;;;;;;0.90;0.90;;;18.30;63.30;;;;;;5093755;27;43358;-70
2023/03/31 04:40:47;;;;;;;0.80;0.80;;;18.30;63.30;;;;;;5100902;27;43447;-72
2023/03/31 04:43:15;;;;;;;0.80;0.80;;;18.30;63.40;;;;;;5097881;27;43505;-71
2023/03/31 04:45:43;;;;;;;0.87;0.87;;;18.20;63.50;;;;;;5102075;27;43970;-72
2023/03/31 04:48:11;;;;;;;0.80;0.80;;;18.20;63.70;;;;;;5097078;27;43990;-71
2023/03/31 04:50:39;;;;;;;1.00;1.00;;;18.20;63.80;;;;;;5092292;27;43416;-71
2023/03/31 04:53:07;;;;;;;1.07;0.97;;;18.20;63.50;;;;;;5076041;28;44001;-72
2023/03/31 04:55:35;;;;;;;0.90;0.90;;;18.20;63.50;;;;;;5096801;27;43846;-71
2023/03/31 04:58:05;;;;;;;1.00;1.00;;;18.20;63.60;;;;;;5101928;27;43547;-71
2023/03/31 05:00:32;;;;;;;1.10;1.10;;;18.20;63.80;;;;;;5104512;27;44058;-72
2023/03/31 05:03:00;;;;;;;0.90;0.70;;;18.20;63.90;;;;;;5106592;27;43581;-72
2023/03/31 05:05:29;;;;;;;0.83;0.83;;;18.20;64.00;;;;;;5091796;27;43849;-72
2023/03/31 05:07:57;;;;;;;0.97;0.97;;;18.30;63.70;;;;;;5096453;27;43542;-71
2023/03/31 05:10:25;;;;;;;0.93;0.93;;;18.40;63.30;;;;;;5086429;27;43451;-70
2023/03/31 05:12:53;;;;;;;1.00;1.00;;;18.40;63.00;;;;;;5098286;27;43461;-73
2023/03/31 05:15:23;;;;;;;0.90;0.90;;;18.40;62.90;;;;;;5101427;27;44010;-70
2023/03/31 05:17:51;;;;;;;1.27;1.13;;;18.40;63.20;;;;;;5090641;27;43439;-72
2023/03/31 05:20:19;;;;;;;1.10;1.10;;;18.40;63.20;;;;;;5093516;27;43474;-72
2023/03/31 05:22:47;;;;;;;1.10;1.10;;;18.40;63.10;;;;;;5075406;27;43491;-71
2023/03/31 05:25:17;;;;;;;0.80;0.80;;;18.40;63.10;;;;;;5097094;27;43916;-70
2023/03/31 05:27:48;;;;;;;0.80;0.80;;;18.30;63.20;;;;;;5088659;27;43474;-69
2023/03/31 05:30:17;;;;;;;0.90;0.90;;;18.30;63.40;;;;;;5105237;27;43422;-71
2023/03/31 05:32:46;;;;;;;0.90;0.90;;;18.20;63.50;;;;;;5096579;27;43411;-70
2023/03/31 05:35:14;;;;;;;0.93;0.93;;;18.20;63.50;;;;;;5097820;27;43600;-72
2023/03/31 05:37:42;;;;;;;0.90;0.90;;;18.20;63.40;;;;;;5087491;27;45143;-70
2023/03/31 05:40:10;;;;;;;0.87;0.87;;;18.20;63.40;;;;;;5100303;27;43473;-72
2023/03/31 05:42:38;;;;;;;1.07;1.07;;;18.20;63.50;;;;;;5091803;27;43446;-70
2023/03/31 05:45:07;;;;;;;0.90;0.90;;;18.20;63.60;;;;;;5104313;27;43853;-71
2023/03/31 05:47:38;;;;;;;1.10;1.10;;;18.20;63.90;;;;;;5099044;27;43443;-70
2023/03/31 05:50:08;;;;;;;1.10;1.10;;;18.20;63.80;;;;;;5106458;27;43365;-70
2023/03/31 05:52:36;;;;;;;0.80;0.80;;;18.20;63.50;;;;;;5103249;27;43355;-73
2023/03/31 05:55:06;;;;;;;1.10;1.10;;;18.20;63.50;;;;;;5089542;27;43614;-71
2023/03/31 05:57:34;;;;;;;1.03;1.03;;;18.20;63.60;;;;;;5105184;27;43443;-72
2023/03/31 06:00:04;;;;;;;1.03;1.03;;;18.20;63.80;;;;;;5099173;27;43509;-72
2023/03/31 06:02:33;;;;;;;1.17;1.10;;;18.10;63.80;;;;;;5083479;27;43591;-70
2023/03/31 06:05:01;;;;;;;0.83;0.83;;;18.20;63.90;;;;;;5074509;27;45980;-70
2023/03/31 06:07:30;;;;;;;1.17;1.17;;;18.30;63.60;;;;;;5102161;27;43418;-70
2023/03/31 06:09:58;;;;;;;1.20;1.10;;;18.40;63.10;;;;;;5103130;27;43461;-70
2023/03/31 06:12:26;;;;;;;1.07;1.07;;;18.40;62.90;;;;;;5074924;27;43554;-71
2023/03/31 06:14:54;;;;;;;1.00;1.00;;;18.50;62.80;;;;;;5082732;27;46101;-71
2023/03/31 06:17:21;;;;;;;1.10;1.10;;;18.40;63.00;;;;;;5087748;27;43371;-72
2023/03/31 06:19:50;;;;;;;1.20;1.20;;;18.40;63.00;;;;;;5104600;27;44086;-71
2023/03/31 06:22:18;;;;;;;1.00;1.00;;;18.40;62.90;;;;;;5102629;27;43486;-72
2023/03/31 06:24:47;;;;;;;1.23;1.17;;;18.40;63.00;;;;;;5099824;27;43921;-71
2023/03/31 06:27:15;;;;;;;1.10;1.10;;;18.30;63.10;;;;;;5100472;27;43946;-70
2023/03/31 06:29:43;;;;;;;1.20;1.20;;;18.30;63.30;;;;;;5083095;27;43508;-72
2023/03/31 06:32:10;;;;;;;1.13;1.13;;;18.20;63.50;;;;;;5103652;27;43466;-71
2023/03/31 06:34:38;;;;;;;1.20;1.20;;;18.20;63.50;;;;;;5100761;27;45039;-70
2023/03/31 06:37:06;;;;;;;1.27;1.27;;;18.30;63.50;;;;;;5101420;27;43433;-70
2023/03/31 06:39:34;;;;;;;1.10;1.10;;;18.20;63.40;;;;;;5093315;27;43402;-70
2023/03/31 06:42:04;;;;;;;1.00;1.00;;;18.20;63.50;;;;;;5104674;27;43470;-70
2023/03/31 06:44:37;;;;;;;1.20;1.20;;;18.20;63.70;;;;;;5077314;27;44135;-72
2023/03/31 06:47:07;;;;;;;1.30;1.20;;;18.10;63.90;;;;;;5089177;27;45009;-70
2023/03/31 06:49:35;;;;;;;1.17;1.17;;;18.20;63.80;;;;;;5095057;27;43382;-71
2023/03/31 06:52:04;;;;;;;1.30;1.30;;;18.20;63.60;;;;;;5102826;27;43440;-71
2023/03/31 06:54:32;;;;;;;1.10;1.10;;;18.20;63.70;;;;;;5103632;27;43907;-71
2023/03/31 06:56:59;;;;;;;1.20;1.20;;;18.10;63.70;;;;;;5104848;27;43479;-70
2023/03/31 06:59:29;;;;;;;1.20;1.20;;;18.10;63.90;;;;;;5103852;27;43380;-72
2023/03/31 07:01:57;;;;;;;1.13;1.13;;;18.10;64.00;;;;;;5085973;27;43550;-71
2023/03/31 07:04:25;;;;;;;1.20;1.20;;;18.20;63.70;;;;;;5096326;27;44299;-71
2023/03/31 07:06:53;;;;;;;1.13;1.13;;;18.30;63.30;;;;;;5090471;27;45284;-70
2023/03/31 07:09:22;;;;;;;1.20;1.20;;;18.40;63.20;;;;;;5099852;27;43423;-70
2023/03/31 07:11:50;;;;;;;1.40;1.40;;;18.40;63.00;;;;;;5096470;27;43383;-71
2023/03/31 07:14:18;;;;;;;1.07;1.07;;;18.40;63.10;;;;;;5105294;27;43899;-73
2023/03/31 07:16:49;;;;;;;1.40;1.40;;;18.40;63.30;;;;;;5100103;27;43446;-71
2023/03/31 07:19:18;;;;;;;1.53;1.33;;;18.40;63.20;;;;;;5088260;27;43383;-70
2023/03/31 07:21:45;;;;;;;1.50;1.40;;;18.30;63.10;;;;;;5097651;27;43463;-71
2023/03/31 07:24:13;;;;;;;1.30;1.30;;;18.30;63.20;;;;;;5104314;27;43604;-71
2023/03/31 07:26:41;;;;;;;1.20;1.20;;;18.30;63.40;;;;;;5101249;27;43639;-71
2023/03/31 07:29:09;;;;;;;1.10;1.10;;;18.20;63.50;;;;;;5104848;27;44023;-72
2023/03/31 07:31:37;;;;;;;1.30;1.30;;;18.20;63.70;;;;;;5101365;27;43389;-71
2023/03/31 07:34:07;;;;;;;1.30;1.30;;;18.20;64.30;;;;;;5099199;27;43827;-71
2023/03/31 07:36:35;;;;;;;1.30;1.30;;;18.20;63.60;;;;;;5100727;27;43399;-70
2023/03/31 07:39:04;;;;;;;1.50;1.50;;;18.20;63.60;;;;;;5103175;27;43533;-72
2023/03/31 07:41:32;;;;;;;1.30;1.30;;;18.10;63.70;;;;;;5098408;27;43372;-71
2023/03/31 07:44:00;;;;;;;1.30;1.20;;;18.10;63.90;;;;;;5099596;27;43623;-71
2023/03/31 07:46:28;;;;;;;1.40;1.40;;;18.10;63.90;;;;;;5103832;27;43471;-71
2023/03/31 07:48:57;;;;;;;1.30;1.30;;;18.10;63.80;;;;;;5100882;27;43456;-72
2023/03/31 07:51:26;;;;;;;1.10;1.10;;;18.10;63.70;;;;;;5107286;27;43489;-70
2023/03/31 07:53:54;;;;;;;1.30;1.30;;;18.10;63.80;;;;;;5094861;27;44356;-71
2023/03/31 07:56:23;;;;;;;1.40;1.40;;;18.10;63.90;;;;;;5098651;27;43380;-72
2023/03/31 07:58:51;;;;;;;1.30;1.30;;;18.10;64.10;;;;;;5086349;27;43467;-71
2023/03/31 08:01:27;;;;;;;1.30;1.30;;;18.10;64.10;;;;;;5100264;27;43426;-70
2023/03/31 08:03:56;;;;;;;1.07;1.07;;;18.20;63.80;;;;;;5088182;27;43966;-71
2023/03/31 08:06:26;;;;;;;1.30;1.30;;;18.30;63.30;;;;;;5083399;27;43776;-71
2023/03/31 08:08:54;;;;;;;1.50;1.50;;;18.40;63.20;;;;;;5093335;27;43456;-71
2023/03/31 08:11:22;;;;;;;1.30;1.30;;;18.40;63.00;;;;;;5103662;27;43490;-70
2023/03/31 08:13:51;;;;;;;1.60;1.50;;;18.40;63.30;;;;;;5099263;27;43813;-72
2023/03/31 08:16:19;;;;;;;1.20;1.20;;;18.30;63.20;;;;;;5088832;27;45092;-70
2023/03/31 08:18:47;;;;;;;1.27;1.27;;;18.40;63.20;;;;;;5089524;27;43444;-71
2023/03/31 08:21:15;;;;;;;1.37;1.37;;;18.30;63.20;;;;;;5088143;27;43348;-71
2023/03/31 08:23:44;;;;;;;1.30;1.30;;;18.30;63.30;;;;;;5103319;27;43772;-71
2023/03/31 08:26:13;;;;;;;1.30;1.30;;;18.20;63.50;;;;;;5100519;27;43426;-70
2023/03/31 08:28:44;;;;;;;1.30;1.30;;;18.20;63.80;;;;;;5103371;27;43725;-72
2023/03/31 08:31:15;;;;;;;1.37;1.37;;;18.20;63.70;;;;;;5075131;27;43423;-70
2023/03/31 08:33:43;;;;;;;1.40;1.40;;;18.20;63.70;;;;;;5103077;27;43941;-70
2023/03/31 08:36:12;;;;;;;1.20;1.20;;;18.20;63.70;;;;;;5083218;27;44980;-71
2023/03/31 08:38:41;;;;;;;1.40;1.40;;;18.20;63.80;;;;;;5096745;27;43518;-70
2023/03/31 08:41:16;;;;;;;1.40;1.40;;;18.10;63.80;;;;;;5088993;27;43728;-72
2023/03/31 08:43:45;;;;;;;1.30;1.30;;;18.10;64.00;;;;;;5095837;27;43855;-71
2023/03/31 08:46:14;;;;;;;1.70;1.60;;;18.10;63.90;;;;;;5085057;27;44769;-72
2023/03/31 08:48:47;;;;;;;1.30;1.30;;;18.10;63.70;;;;;;5105962;27;43395;-71
2023/03/31 08:51:20;;;;;;;1.50;1.50;;;18.10;63.80;;;;;;5100180;27;43280;-71
2023/03/31 08:53:49;;;;;;;1.37;1.37;;;18.10;63.80;;;;;;5084330;27;46026;-72
2023/03/31 08:56:21;;;;;;;1.40;1.40;;;18.10;64.00;;;;;;5105253;27;43525;-72
2023/03/31 08:58:51;;;;;;;1.67;1.57;;;18.10;64.10;;;;;;5105587;27;43995;-71
2023/03/31 09:01:24;;;;;;;1.80;1.50;;;18.20;63.90;;;;;;5100298;27;43562;-71
2023/03/31 09:04:11;;;;;;;1.37;1.37;;;18.30;63.50;;;;;;5072796;28;43910;-72
2023/03/31 09:06:41;;;;;;;1.30;1.30;;;18.30;63.20;;;;;;5079803;28;43444;-71
2023/03/31 09:09:11;;;;;;;1.43;1.43;;;18.30;63.20;;;;;;5074741;28;43285;-71
2023/03/31 09:11:40;;;;;;;1.50;1.50;;;18.30;63.30;;;;;;5078365;28;44223;-71
2023/03/31 09:14:27;;;;;;;1.70;1.60;;;18.30;63.40;;;;;;5070547;28;43955;-70
2023/03/31 09:16:59;;;;;;;1.53;1.53;;;18.30;63.30;;;;;;5075099;28;44051;-72
2023/03/31 09:19:34;;;;;;;1.27;1.27;;;18.30;63.30;;;;;;5068692;28;43407;-72
2023/03/31 09:22:02;;;;;;;1.10;1.10;;;18.20;63.40;;;;;;5084666;28;43526;-71
2023/03/31 09:24:31;;;;;;;1.60;1.60;;;18.20;63.50;;;;;;5081969;28;43924;-72
2023/03/31 09:27:01;;;;;;;1.50;1.50;;;18.20;63.80;;;;;;5062527;28;44998;-72
2023/03/31 09:29:30;;;;;;;1.20;1.20;;;18.20;64.10;;;;;;5082689;28;43995;-72
2023/03/31 09:32:01;;;;;;;1.30;1.30;;;18.20;63.60;;;;;;5080795;28;43458;-71
2023/03/31 09:34:32;;;;;;;1.40;1.40;;;18.20;63.70;;;;;;5078607;28;43707;-71
2023/03/31 09:37:00;;;;;;;1.33;1.33;;;18.10;63.60;;;;;;5082068;28;43685;-70
2023/03/31 09:39:28;;;;;;;1.40;1.40;;;18.10;63.70;;;;;;5077859;28;43452;-71
2023/03/31 09:41:56;;;;;;;1.20;1.20;;;18.10;64.00;;;;;;5080981;28;43427;-72
2023/03/31 09:44:27;;;;;;;1.40;1.40;;;18.20;64.00;;;;;;5071946;28;43846;-73
2023/03/31 09:46:55;;;;;;;2.00;1.50;;;18.30;63.60;;;;;;5069535;28;43415;-71
2023/03/31 09:49:25;;;;;;;1.40;1.40;;;18.40;63.30;;;;;;5058545;28;43449;-72
2023/03/31 09:52:00;;;;;;;1.63;1.60;;;18.40;63.80;;;;;;5081981;28;43490;-70
2023/03/31 09:54:30;;;;;;;1.63;1.63;;;18.30;63.00;;;;;;5082307;28;43663;-72
2023/03/31 09:56:58;;;;;;;1.50;1.50;;;18.30;63.30;;;;;;5076904;28;43447;-71
2023/03/31 09:59:32;;;;;;;1.50;1.40;;;18.30;63.20;;;;;;5060625;28;43449;-71
2023/03/31 10:02:02;;;;;;;1.37;1.37;;;18.30;63.10;;;;;;5088423;27;44914;-72
2023/03/31 10:04:32;;;;;;;1.40;1.40;;;18.30;63.30;;;;;;5097644;27;43855;-72
2023/03/31 10:07:00;;;;;;;1.33;1.33;;;18.20;63.40;;;;;;5086611;27;44923;-72
2023/03/31 10:09:29;;;;;;;1.50;1.50;;;18.20;63.50;;;;;;5101281;27;43526;-71
2023/03/31 10:11:58;;;;;;;1.67;1.57;;;18.20;63.80;;;;;;5097457;27;43818;-71
2023/03/31 10:14:32;;;;;;;1.50;1.50;;;18.20;63.60;;;;;;5097258;27;43854;-71
2023/03/31 10:17:03;;;;;;;1.30;1.30;;;18.20;63.50;;;;;;5103920;27;43468;-70
2023/03/31 10:19:32;;;;;;;1.40;1.40;;;18.20;63.70;;;;;;5101768;27;44107;-70
2023/03/31 10:22:01;;;;;;;1.30;1.30;;;18.10;63.80;;;;;;5107243;27;43526;-71
2023/03/31 10:24:37;;;;;;;1.60;1.60;;;18.10;63.80;;;;;;5074491;27;46416;-70
2023/03/31 10:27:07;;;;;;;1.43;1.43;;;18.10;63.80;;;;;;5085338;27;45333;-70
2023/03/31 10:29:36;;;;;;;1.40;1.40;;;18.10;63.70;;;;;;5103826;27;43794;-71
2023/03/31 10:32:09;;;;;;;1.50;1.50;;;18.20;63.70;;;;;;5103967;27;43475;-71
2023/03/31 10:34:38;;;;;;;1.37;1.37;;;18.10;63.80;;;;;;5103819;27;43935;-71
2023/03/31 10:37:06;;;;;;;1.90;1.80;;;18.10;63.90;;;;;;5094644;27;43453;-71
2023/03/31 10:39:35;;;;;;;1.37;1.33;;;18.10;64.10;;;;;;5100697;27;43589;-71
2023/03/31 10:42:03;;;;;;;1.40;1.40;;;18.10;64.00;;;;;;5099257;27;43449;-72
2023/03/31 10:44:36;;;;;;;1.40;1.40;;;18.20;63.60;;;;;;5103141;27;43927;-73
2023/03/31 10:47:09;;;;;;;1.60;1.50;;;18.30;63.30;;;;;;5082470;27;43386;-71
2023/03/31 10:49:38;;;;;;;1.50;1.50;;;18.40;63.00;;;;;;5090995;27;43467;-71
2023/03/31 10:52:18;;;;;;;1.23;1.23;;;18.40;62.90;;;;;;5101896;27;43505;-72
2023/03/31 10:54:47;;;;;;;1.30;1.30;;;18.30;63.20;;;;;;5103499;27;43927;-71
2023/03/31 10:57:16;;;;;;;1.40;1.40;;;18.30;63.10;;;;;;5100380;27;43925;-71
2023/03/31 10:59:57;;;;;;;1.63;1.53;;;18.30;63.10;;;;;;5105414;27;43399;-71
2023/03/31 11:02:49;;;;;;;1.30;1.30;;;18.30;63.20;;;;;;5083984;28;43567;-71
2023/03/31 11:05:21;;;;;;;1.40;1.40;;;18.30;63.40;;;;;;5087856;27;43716;-71
2023/03/31 11:07:58;;;;;;;1.70;1.60;;;18.20;63.50;;;;;;5085543;27;44702;-71
2023/03/31 11:10:42;;;;;;;1.70;1.60;;;18.20;63.70;;;;;;5105119;27;43489;-70
2023/03/31 11:13:12;;;;;;;1.30;1.30;;;18.20;63.50;;;;;;5104090;27;43434;-70
2023/03/31 11:15:43;;;;;;;1.40;1.40;;;18.20;63.50;;;;;;5103754;27;43915;-71
2023/03/31 11:18:25;;;;;;;1.30;1.30;;;18.20;63.60;;;;;;5103310;27;43649;-71
2023/03/31 11:20:57;;;;;;;2.20;1.40;;;18.10;63.70;;;;;;5094590;27;43460;-71
2023/03/31 11:23:29;;;;;;;1.17;1.17;;;18.10;63.90;;;;;;5099890;27;43469;-71
2023/03/31 11:26:01;;;;;;;1.60;1.50;;;18.20;63.90;;;;;;5099737;27;43857;-71
2023/03/31 11:28:46;;;;;;;1.43;1.43;;;18.20;63.50;;;;;;5106541;27;43786;-71
2023/03/31 11:31:21;;;;;;;1.50;1.50;;;18.30;63.20;;;;;;5087657;27;43449;-70
2023/03/31 11:34:09;;;;;;;1.90;1.40;;;18.30;63.10;;;;;;5089399;27;43438;-72
2023/03/31 11:36:48;;;;;;;1.77;1.30;;;18.30;63.40;;;;;;5071980;27;45597;-70
2023/03/31 11:39:23;;;;;;;2.03;1.47;;;18.20;63.20;;;;;;5091705;27;44055;-71
2023/03/31 11:41:52;;;;;;;1.30;1.30;;;18.30;63.20;;;;;;5086300;27;44434;-71
2023/03/31 11:44:20;;;;;;;1.23;1.23;;;18.20;63.20;;;;;;5103613;27;43478;-70
2023/03/31 11:46:49;;;;;;;1.40;1.40;;;18.20;63.40;;;;;;5095779;27;43839;-71
2023/03/31 11:49:20;;;;;;;1.20;1.20;;;18.20;63.50;;;;;;5103556;27;43794;-72
2023/03/31 11:51:51;;;;;;;1.40;1.40;;;18.20;63.70;;;;;;5090501;27;44393;-71
2023/03/31 11:54:23;;;;;;;2.40;1.80;;;18.10;63.50;;;;;;5099634;27;43473;-70
2023/03/31 11:56:51;;;;;;;1.47;1.40;;;18.20;63.50;;;;;;5099166;27;43863;-71
2023/03/31 11:59:19;;;;;;;1.20;1.20;;;18.20;63.60;;;;;;5107457;27;43405;-71
2023/03/31 12:01:49;;;;;;;1.20;1.20;;;18.10;63.50;;;;;;5092827;27;43401;-71
2023/03/31 12:04:25;;;;;;;1.20;1.20;;;18.10;63.70;;;;;;5093781;27;43422;-72
2023/03/31 12:06:53;;;;;;;1.33;1.30;;;18.10;63.80;;;;;;5099873;27;43835;-71
2023/03/31 12:09:23;;;;;;;1.23;1.20;;;18.10;63.60;;;;;;5098460;27;43400;-73
2023/03/31 12:11:53;;;;;;;1.40;1.30;;;18.30;63.50;;;;;;5103746;27;43384;-70
2023/03/31 12:14:27;;;;;;;1.37;1.37;;;18.30;63.00;;;;;;5108739;27;43484;-71
2023/03/31 12:16:58;;;;;;;1.10;1.10;;;18.40;62.90;;;;;;5078534;27;45740;-71
2023/03/31 12:19:28;;;;;;;1.20;1.20;;;18.30;62.80;;;;;;5084591;27;44668;-71
2023/03/31 12:21:58;;;;;;;1.40;1.40;;;18.30;63.10;;;;;;5093279;27;43400;-71
2023/03/31 12:24:34;;;;;;;1.40;1.40;;;18.30;63.00;;;;;;5106892;27;43936;-71
2023/03/31 12:27:05;;;;;;;1.37;1.37;;;18.30;63.00;;;;;;5100808;27;43775;-70
2023/03/31 12:29:36;;;;;;;1.40;1.40;;;18.30;63.00;;;;;;5083973;27;44677;-71
2023/03/31 12:32:05;;;;;;;1.30;1.20;;;18.20;63.20;;;;;;5102412;27;43591;-71
2023/03/31 12:34:34;;;;;;;1.27;1.27;;;18.20;63.40;;;;;;5085401;27;43542;-71
2023/03/31 12:37:14;;;;;;;1.40;1.30;;;18.20;63.50;;;;;;5100214;27;43917;-71
2023/03/31 12:39:49;;;;;;;1.27;1.27;;;18.20;63.40;;;;;;5095669;27;43439;-69
2023/03/31 12:42:36;;;;;;;1.23;1.23;;;18.20;63.50;;;;;;5102382;27;43418;-71
2023/03/31 12:45:07;;;;;;;1.40;1.40;;;18.10;63.50;;;;;;5105225;27;43396;-73
2023/03/31 12:47:50;;;;;;;1.30;1.20;;;18.10;63.60;;;;;;5091741;27;43934;-71
2023/03/31 12:50:41;;;;;;;1.20;1.10;;;18.10;63.80;;;;;;5086250;27;43439;-70
2023/03/31 12:53:14;;;;;;;1.50;1.50;;;18.10;63.60;;;;;;5099600;27;44011;-71
2023/03/31 12:55:45;;;;;;;1.20;1.20;;;18.20;63.40;;;;;;5087754;27;43533;-70
2023/03/31 12:58:42;;;;;;;1.53;1.40;;;18.30;63.20;;;;;;5097208;27;43924;-71
2023/03/31 13:01:15;;;;;;;1.20;1.20;;;18.30;63.10;;;;;;5090018;27;43435;-71
2023/03/31 13:03:45;;;;;;;1.63;1.37;;;18.20;63.10;;;;;;5095969;27;43977;-72
2023/03/31 13:06:50;;;;;;;1.13;1.13;;;18.20;63.40;;;;;;5102566;27;43493;-70
2023/03/31 13:09:46;;;;;;;1.17;1.10;;;18.20;63.30;;;;;;5076573;27;45886;-70